CheckWX is a tool to help pilots better visualize weather data.  It is not intended as a substitute for an official pre-flight weather briefing.

07:06:20 UTC

OJAM TAF
Amman-Marka International Airport
Amman, Jordan
TAF OJAM 160424Z 1606/1712 00000KT 5000 HZ NSC BECMG 1608/1610 29012KT FEW030

Jun-16@
06:00 UTC

Jun-16 @ 06:00 UTC

Jun-16@
08:00 UTC

Jun-16 @ 08:00 UTC

TAF OJAM 160424Z 1606/1712 00000KT 5000 HZ NSC
Conditions
Haze
Cloud Levels
  • No significant clouds

Jun-16@
08:00 UTC

Jun-16 @ 08:00 UTC

Jun-17@
12:00 UTC

Jun-17 @ 12:00 UTC

BECMG 1608/1610 29012KT FEW030

Becoming

Becoming Conditions expected by Sun, Jun 16, 2019 @ 10:00 UTC

Wind
  • 290° at 12 KTS
Conditions
Haze
Cloud Levels
  • Few at 3,000' AGL